createdAt,value
2017-11-18T00:01:24.251Z,40.10
2017-11-18T00:03:52.049Z,40.10
2017-11-18T00:06:19.859Z,40.40
2017-11-18T00:08:47.448Z,40.30
2017-11-18T00:11:15.120Z,39.83
2017-11-18T00:13:42.753Z,37.77
2017-11-18T00:18:49.537Z,48.17
2017-11-18T00:21:17.169Z,43.67
2017-11-18T00:23:44.806Z,40.87
2017-11-18T00:26:12.925Z,54.07
2017-11-18T00:28:40.541Z,39.57
2017-11-18T00:31:08.985Z,36.40
2017-11-18T00:33:37.380Z,39.30
2017-11-18T00:36:05.463Z,35.73
2017-11-18T00:38:33.086Z,38.63
2017-11-18T00:41:00.785Z,37.93
2017-11-18T00:43:28.999Z,45.13
2017-11-18T00:46:03.768Z,37.57
2017-11-18T00:48:29.429Z,38.30
2017-11-18T00:50:57.404Z,41.53
2017-11-18T00:53:25.035Z,38.00
2017-11-18T00:55:54.041Z,40.67
2017-11-18T00:58:21.665Z,36.13
2017-11-18T01:00:49.643Z,38.67
2017-11-18T01:03:17.459Z,43.40
2017-11-18T01:05:46.133Z,33.97
2017-11-18T01:08:13.756Z,39.37
2017-11-18T01:10:41.484Z,42.70
2017-11-18T01:13:10.005Z,38.97
2017-11-18T01:15:37.627Z,37.73
2017-11-18T01:18:05.306Z,35.23
2017-11-18T01:20:32.935Z,39.50
2017-11-18T01:23:00.563Z,39.70
2017-11-18T01:25:28.254Z,40.50
2017-11-18T01:27:55.879Z,43.43
2017-11-18T01:30:23.504Z,41.67
2017-11-18T01:32:52.149Z,42.60
2017-11-18T01:35:19.782Z,40.53
2017-11-18T01:37:47.409Z,40.23
2017-11-18T01:40:15.107Z,38.30
2017-11-18T01:45:21.884Z,43.33
2017-11-18T01:47:49.531Z,36.60
2017-11-18T01:50:18.083Z,38.57
2017-11-18T01:52:46.727Z,38.80
2017-11-18T01:55:15.187Z,37.13
2017-11-18T01:57:43.778Z,38.53
2017-11-18T02:00:13.059Z,34.93
2017-11-18T02:02:43.525Z,40.07
2017-11-18T02:05:12.181Z,39.80
2017-11-18T02:07:40.721Z,36.73
2017-11-18T02:10:08.358Z,41.47
2017-11-18T02:12:36.993Z,41.20
2017-11-18T02:15:04.626Z,46.57
2017-11-18T02:17:32.250Z,43.47
2017-11-18T02:19:59.957Z,44.50
2017-11-18T02:22:27.591Z,42.80
2017-11-18T02:24:55.238Z,44.00
2017-11-18T02:27:22.959Z,45.23
2017-11-18T02:29:50.605Z,39.47
2017-11-18T02:32:18.245Z,38.57
2017-11-18T02:34:45.966Z,40.67
2017-11-18T02:37:13.590Z,41.43
2017-11-18T02:39:41.230Z,39.97
2017-11-18T02:42:08.938Z,40.10
2017-11-18T02:44:37.531Z,37.53
2017-11-18T02:47:05.172Z,38.20
2017-11-18T02:49:32.861Z,34.60
2017-11-18T02:52:01.326Z,40.70
2017-11-18T02:54:28.945Z,39.27
2017-11-18T02:56:56.650Z,37.70
2017-11-18T02:59:24.292Z,41.30
2017-11-18T03:01:51.938Z,44.97
2017-11-18T03:04:19.619Z,43.70
2017-11-18T03:09:26.427Z,44.97
2017-11-18T03:11:54.053Z,38.37
2017-11-18T03:14:24.447Z,44.73
2017-11-18T03:16:51.726Z,41.37
2017-11-18T03:19:22.319Z,40.50
2017-11-18T03:21:47.144Z,47.43
2017-11-18T03:24:14.825Z,41.17
2017-11-18T03:26:42.448Z,36.87
2017-11-18T03:29:10.130Z,40.97
2017-11-18T03:31:37.805Z,37.70
2017-11-18T03:34:05.433Z,39.63
2017-11-18T03:36:33.063Z,42.03
2017-11-18T03:39:00.750Z,43.43
2017-11-18T03:41:28.370Z,42.23
2017-11-18T03:43:55.996Z,43.80
2017-11-18T03:46:23.695Z,38.70
2017-11-18T03:48:51.322Z,38.63
2017-11-18T03:53:59.774Z,44.55
2017-11-18T03:56:27.386Z,36.33
2017-11-18T03:58:55.993Z,39.33
2017-11-18T04:01:23.674Z,40.53
2017-11-18T04:03:51.308Z,40.87
2017-11-18T04:06:18.948Z,39.00
2017-11-18T04:08:46.632Z,41.90
2017-11-18T04:11:15.197Z,39.80
2017-11-18T04:13:42.836Z,47.80
2017-11-18T04:18:49.305Z,45.53
2017-11-18T04:21:17.005Z,40.67
2017-11-18T04:23:45.469Z,41.63
2017-11-18T04:26:14.251Z,38.83
2017-11-18T04:28:41.935Z,42.97
2017-11-18T04:31:09.579Z,39.60
2017-11-18T04:33:37.216Z,40.20
2017-11-18T04:36:06.179Z,41.33
2017-11-18T04:38:33.813Z,43.77
2017-11-18T04:41:01.446Z,40.67
2017-11-18T04:43:29.912Z,37.70
2017-11-18T04:45:58.398Z,43.20
2017-11-18T04:48:26.027Z,36.67
2017-11-18T04:50:54.541Z,38.43
2017-11-18T04:53:22.188Z,38.10
2017-11-18T04:55:49.826Z,41.27
2017-11-18T04:58:17.520Z,40.40
2017-11-18T05:00:45.155Z,37.53
2017-11-18T05:03:12.780Z,37.57
2017-11-18T05:05:40.494Z,40.83
2017-11-18T05:08:08.155Z,42.03
2017-11-18T05:10:35.767Z,38.63
2017-11-18T05:13:03.458Z,43.27
2017-11-18T05:15:31.521Z,40.83
2017-11-18T05:17:59.079Z,39.67
2017-11-18T05:20:26.769Z,40.77
2017-11-18T05:22:55.353Z,37.80
2017-11-18T05:25:22.978Z,40.43
2017-11-18T05:27:50.672Z,43.23
2017-11-18T05:30:18.304Z,41.07
2017-11-18T05:32:45.924Z,38.00
2017-11-18T05:35:14.568Z,38.93
2017-11-18T05:37:42.196Z,38.80
2017-11-18T05:40:09.830Z,37.97
2017-11-18T05:45:18.634Z,42.95
2017-11-18T05:47:46.313Z,40.80
2017-11-18T05:50:13.938Z,34.03
2017-11-18T05:52:41.568Z,40.57
2017-11-18T05:55:09.270Z,36.13
2017-11-18T05:57:36.888Z,41.97
2017-11-18T06:00:04.521Z,39.67
2017-11-18T06:02:32.203Z,39.47
2017-11-18T06:04:59.829Z,39.80
2017-11-18T06:07:27.462Z,36.57
2017-11-18T06:09:55.158Z,39.60
2017-11-18T06:12:22.800Z,39.30
2017-11-18T06:14:50.422Z,35.67
2017-11-18T06:17:18.103Z,38.97
2017-11-18T06:19:45.735Z,40.03
2017-11-18T06:22:13.364Z,40.10
2017-11-18T06:24:41.068Z,38.17
2017-11-18T06:27:08.692Z,36.17
2017-11-18T06:29:36.321Z,41.00
2017-11-18T06:34:43.077Z,41.42
2017-11-18T06:37:10.779Z,35.80
2017-11-18T06:39:38.418Z,37.57
2017-11-18T06:42:06.050Z,39.17
2017-11-18T06:44:33.742Z,41.57
2017-11-18T06:47:01.377Z,40.27
2017-11-18T06:49:29.012Z,40.37
2017-11-18T06:51:56.720Z,35.83
2017-11-18T06:54:24.362Z,36.37
2017-11-18T06:56:52.000Z,41.00
2017-11-18T06:59:21.167Z,43.10
2017-11-18T07:01:48.811Z,40.80
2017-11-18T07:04:19.262Z,45.57
2017-11-18T07:06:46.969Z,42.03
2017-11-18T07:09:14.619Z,43.80
2017-11-18T07:11:43.073Z,39.30
2017-11-18T07:14:10.795Z,37.70
2017-11-18T07:16:38.425Z,43.00
2017-11-18T07:19:06.076Z,39.93
2017-11-18T07:21:33.766Z,37.83
2017-11-18T07:24:03.363Z,39.87
2017-11-18T07:26:29.029Z,41.23
2017-11-18T07:28:56.729Z,38.50
2017-11-18T07:31:24.366Z,35.80
2017-11-18T07:33:52.034Z,37.23
2017-11-18T07:36:19.739Z,38.53
2017-11-18T07:38:47.415Z,39.57
2017-11-18T07:41:15.099Z,43.87
2017-11-18T07:43:42.813Z,38.83
2017-11-18T07:46:10.441Z,39.30
2017-11-18T07:48:38.081Z,39.77
2017-11-18T07:51:05.779Z,46.63
2017-11-18T07:53:33.407Z,40.00
2017-11-18T07:56:01.048Z,39.63
2017-11-18T08:01:07.856Z,42.50
2017-11-18T08:03:35.553Z,43.30
2017-11-18T08:06:03.199Z,36.90
2017-11-18T08:08:30.846Z,40.30
2017-11-18T08:10:59.474Z,37.53
2017-11-18T08:13:27.119Z,38.47
2017-11-18T08:15:55.589Z,43.40
2017-11-18T08:18:23.295Z,37.97
2017-11-18T08:20:50.916Z,38.90
2017-11-18T08:23:18.550Z,39.80
2017-11-18T08:25:46.268Z,35.13
2017-11-18T08:28:13.896Z,37.10
2017-11-18T08:30:41.526Z,35.50
2017-11-18T08:33:09.220Z,31.37
2017-11-18T08:35:36.847Z,38.27
2017-11-18T08:38:04.482Z,34.30
2017-11-18T08:40:32.178Z,35.23
2017-11-18T08:42:59.809Z,29.37
2017-11-18T08:45:27.440Z,27.77
2017-11-18T08:47:55.124Z,28.60
2017-11-18T08:50:22.757Z,33.20
2017-11-18T08:52:50.406Z,31.43
2017-11-18T08:55:18.100Z,28.27
2017-11-18T08:57:45.744Z,27.97
2017-11-18T09:02:53.373Z,28.70
2017-11-18T09:05:21.007Z,28.37
2017-11-18T09:07:48.631Z,27.87
2017-11-18T09:12:43.976Z,31.83
2017-11-18T09:15:11.612Z,32.17
2017-11-18T09:17:41.531Z,29.00
2017-11-18T09:20:09.160Z,28.70
2017-11-18T09:22:41.758Z,29.57
2017-11-18T09:25:07.962Z,28.20
2017-11-18T09:27:35.603Z,28.73
2017-11-18T09:30:03.232Z,29.50
2017-11-18T09:32:30.970Z,29.00
2017-11-18T09:34:58.601Z,27.33
2017-11-18T09:37:26.225Z,27.80
2017-11-18T09:39:53.919Z,31.57
2017-11-18T09:42:23.436Z,27.87
2017-11-18T09:44:49.733Z,29.50
2017-11-18T09:47:17.433Z,25.67
2017-11-18T09:49:45.074Z,28.43
2017-11-18T09:52:12.706Z,26.57
2017-11-18T09:54:40.418Z,22.07
2017-11-18T09:57:08.041Z,24.10
2017-11-18T09:59:35.665Z,26.77
2017-11-18T10:02:04.108Z,25.80
2017-11-18T10:04:31.408Z,28.17
2017-11-18T10:06:59.027Z,23.87
2017-11-18T10:09:26.723Z,27.77
2017-11-18T10:11:54.342Z,25.57
2017-11-18T10:14:21.990Z,24.73
2017-11-18T10:16:50.112Z,26.37
2017-11-18T10:19:17.824Z,26.47
2017-11-18T10:21:45.467Z,21.60
2017-11-18T10:26:52.270Z,24.10
2017-11-18T10:29:19.985Z,22.80
2017-11-18T10:31:47.600Z,24.70
2017-11-18T10:34:15.266Z,22.80
2017-11-18T10:36:42.976Z,24.30
2017-11-18T10:39:10.620Z,21.33
2017-11-18T10:41:38.289Z,23.43
2017-11-18T10:44:05.976Z,24.67
2017-11-18T10:46:34.157Z,23.03
2017-11-18T10:49:01.797Z,20.67
2017-11-18T10:51:29.504Z,23.33
2017-11-18T10:53:57.672Z,19.63
2017-11-18T10:56:25.365Z,18.17
2017-11-18T10:58:53.102Z,19.27
2017-11-18T11:01:20.728Z,18.30
2017-11-18T11:03:48.376Z,18.83
2017-11-18T11:06:16.049Z,21.43
2017-11-18T11:08:43.677Z,20.60
2017-11-18T11:11:12.239Z,24.17
2017-11-18T11:13:40.885Z,24.93
2017-11-18T11:16:09.378Z,23.80
2017-11-18T11:18:37.017Z,22.50
2017-11-18T11:21:04.730Z,20.53
2017-11-18T11:23:32.349Z,27.33
2017-11-18T11:25:59.989Z,29.43
2017-11-18T11:28:27.699Z,23.20
2017-11-18T11:30:55.341Z,26.47
2017-11-18T11:33:22.975Z,26.70
2017-11-18T11:35:50.669Z,27.67
2017-11-18T11:38:18.306Z,29.97
2017-11-18T11:40:45.949Z,27.67
2017-11-18T11:43:14.617Z,26.00
2017-11-18T11:45:43.070Z,25.70
2017-11-18T11:48:10.713Z,26.97
2017-11-18T11:53:15.491Z,30.40
2017-11-18T11:58:11.780Z,26.97
2017-11-18T12:00:39.430Z,26.27
2017-11-18T12:03:07.153Z,27.03
2017-11-18T12:05:38.345Z,23.73
2017-11-18T12:08:06.008Z,25.67
2017-11-18T12:10:33.705Z,25.67
2017-11-18T12:13:01.347Z,21.40
2017-11-18T12:15:28.986Z,21.17
2017-11-18T12:17:57.560Z,21.20
2017-11-18T12:20:25.205Z,22.53
2017-11-18T12:22:52.860Z,21.47
2017-11-18T12:25:21.301Z,18.30
2017-11-18T12:27:49.810Z,22.33
2017-11-18T12:30:17.439Z,20.47
2017-11-18T12:32:45.142Z,17.37
2017-11-18T12:35:12.765Z,20.60
2017-11-18T12:37:40.384Z,16.97
2017-11-18T12:40:08.087Z,18.23
2017-11-18T12:42:35.713Z,15.77
2017-11-18T12:45:04.967Z,17.00
2017-11-18T12:47:32.448Z,19.63
2017-11-18T12:50:00.079Z,15.53
2017-11-18T12:52:27.700Z,19.00
2017-11-18T12:54:56.209Z,16.27
2017-11-18T12:57:23.847Z,16.27
2017-11-18T12:59:51.469Z,18.53
2017-11-18T13:02:19.167Z,18.37
2017-11-18T13:04:46.809Z,19.57
2017-11-18T13:07:14.416Z,22.10
2017-11-18T13:09:42.097Z,26.70
2017-11-18T13:12:09.718Z,22.30
2017-11-18T13:17:17.778Z,25.23
2017-11-18T13:22:26.325Z,24.90
2017-11-18T13:24:53.960Z,24.53
2017-11-18T13:27:22.480Z,23.13
2017-11-18T13:29:49.889Z,24.43
2017-11-18T13:32:17.520Z,27.13
2017-11-18T13:34:45.153Z,22.37
2017-11-18T13:37:12.831Z,24.00
2017-11-18T13:39:40.460Z,20.87
2017-11-18T13:42:08.106Z,19.80
2017-11-18T13:44:35.797Z,22.57
2017-11-18T13:47:03.727Z,25.93
2017-11-18T13:49:31.360Z,21.20
2017-11-18T13:51:59.146Z,21.07
2017-11-18T13:54:26.770Z,20.90
2017-11-18T13:56:54.407Z,21.83
2017-11-18T13:59:22.401Z,21.57
2017-11-18T14:01:56.349Z,19.53
2017-11-18T14:04:23.330Z,22.87
2017-11-18T14:06:51.769Z,22.37
2017-11-18T14:09:19.406Z,20.37
2017-11-18T14:11:47.109Z,20.60
2017-11-18T14:14:14.771Z,18.43
2017-11-18T14:16:42.409Z,19.20
2017-11-18T14:19:10.127Z,20.43
2017-11-18T14:21:38.612Z,20.57
2017-11-18T14:24:07.087Z,20.10
2017-11-18T14:26:35.628Z,18.30
2017-11-18T14:29:03.265Z,19.10
2017-11-18T14:34:09.652Z,20.73
2017-11-18T14:36:37.530Z,17.20
2017-11-18T14:39:05.288Z,17.57
2017-11-18T14:41:33.586Z,21.47
2017-11-18T14:44:01.286Z,22.63
2017-11-18T14:46:28.915Z,21.30
2017-11-18T14:48:56.861Z,23.37
2017-11-18T14:51:24.502Z,21.83
2017-11-18T14:53:52.331Z,22.20
2017-11-18T14:56:20.018Z,23.40
2017-11-18T14:58:47.645Z,22.83
2017-11-18T15:01:15.349Z,23.43
2017-11-18T15:03:43.005Z,25.60
2017-11-18T15:06:10.627Z,25.97
2017-11-18T15:08:38.260Z,25.00
2017-11-18T15:11:06.188Z,25.33
2017-11-18T15:13:33.812Z,26.77
2017-11-18T15:21:25.742Z,32.30
2017-11-18T15:23:59.039Z,31.00
2017-11-18T15:29:08.409Z,30.12
2017-11-18T15:39:35.677Z,35.88
2017-11-18T15:42:03.298Z,32.70
2017-11-18T15:44:30.920Z,33.93
2017-11-18T15:49:43.956Z,37.67
2017-11-18T15:52:16.223Z,35.93
2017-11-18T15:54:49.284Z,37.10
2017-11-18T15:57:18.917Z,36.53
2017-11-18T15:59:46.972Z,36.27
2017-11-18T16:04:56.313Z,38.80
2017-11-18T16:10:07.016Z,85.45
2017-11-18T16:12:34.701Z,50.73
2017-11-18T16:15:03.676Z,116.73
2017-11-18T16:17:31.374Z,66.73
2017-11-18T16:19:59.041Z,103.27
2017-11-18T16:22:27.951Z,43.20
2017-11-18T16:24:56.620Z,71.20
2017-11-18T16:27:24.281Z,44.67
2017-11-18T16:29:51.932Z,45.43
2017-11-18T16:32:20.464Z,35.57
2017-11-18T16:34:48.122Z,38.93
2017-11-18T16:37:15.772Z,61.43
2017-11-18T16:39:43.482Z,45.20
2017-11-18T16:42:11.125Z,36.93
2017-11-18T16:44:38.758Z,38.03
2017-11-18T16:47:06.447Z,37.70
2017-11-18T16:49:34.090Z,40.70
2017-11-18T16:52:01.718Z,59.37
2017-11-18T16:54:29.425Z,133.93
2017-11-18T16:56:58.008Z,39.50
2017-11-18T16:59:25.649Z,44.80
2017-11-18T17:01:53.345Z,43.20
2017-11-18T17:04:20.973Z,43.43
2017-11-18T17:06:48.621Z,47.73
2017-11-18T17:09:16.330Z,42.07
2017-11-18T17:11:43.976Z,41.27
2017-11-18T17:16:56.237Z,49.70
2017-11-18T17:19:23.971Z,36.93
2017-11-18T17:21:52.213Z,38.27
2017-11-18T17:24:19.863Z,36.30
2017-11-18T17:26:48.970Z,38.90
2017-11-18T17:31:58.830Z,37.33
2017-11-18T17:34:27.057Z,33.80
2017-11-18T17:36:55.634Z,31.50
2017-11-18T17:39:23.380Z,33.40
2017-11-18T17:41:51.516Z,35.97
2017-11-18T17:44:19.146Z,39.87
2017-11-18T17:46:46.843Z,38.43
2017-11-18T17:49:14.474Z,39.27
2017-11-18T17:51:42.129Z,37.00
2017-11-18T17:54:10.210Z,35.63
2017-11-18T17:56:37.904Z,35.93
2017-11-18T17:59:05.535Z,32.43
2017-11-18T18:01:33.230Z,37.73
2017-11-18T18:04:00.861Z,29.47
2017-11-18T18:06:28.504Z,28.67
2017-11-18T18:08:56.687Z,31.23
2017-11-18T18:11:24.327Z,32.40
2017-11-18T18:13:51.958Z,32.10
2017-11-18T18:16:20.591Z,29.77
2017-11-18T18:18:48.770Z,31.40
2017-11-18T18:21:16.397Z,32.63
2017-11-18T18:23:44.102Z,28.53
2017-11-18T18:26:11.764Z,32.10
2017-11-18T18:28:39.673Z,33.20
2017-11-18T18:31:08.308Z,31.50
2017-11-18T18:33:35.939Z,30.47
2017-11-18T18:36:03.569Z,30.70
2017-11-18T18:38:31.294Z,33.60
2017-11-18T18:40:59.747Z,30.50
2017-11-18T18:43:27.375Z,30.33
2017-11-18T18:45:55.069Z,31.10
2017-11-18T18:48:25.792Z,32.77
2017-11-18T18:50:52.657Z,34.33
2017-11-18T18:56:05.201Z,30.10
2017-11-18T18:58:33.850Z,32.20
2017-11-18T19:01:01.493Z,28.27
2017-11-18T19:03:29.497Z,34.00
2017-11-18T19:05:57.193Z,28.67
2017-11-18T19:08:24.825Z,30.40
2017-11-18T19:10:52.786Z,27.10
2017-11-18T19:13:20.474Z,27.60
2017-11-18T19:15:48.100Z,30.40
2017-11-18T19:18:16.559Z,31.83
2017-11-18T19:20:45.217Z,34.43
2017-11-18T19:23:12.849Z,33.20
2017-11-18T19:25:41.481Z,32.23
2017-11-18T19:28:09.168Z,32.57
2017-11-18T19:30:36.799Z,31.47
2017-11-18T19:33:04.421Z,34.13
2017-11-18T19:35:32.139Z,35.73
2017-11-18T19:37:59.782Z,33.50
2017-11-18T19:40:28.240Z,24.07
2017-11-18T19:42:55.983Z,25.77
2017-11-18T19:45:24.084Z,28.50
2017-11-18T19:47:51.732Z,25.50
2017-11-18T19:50:19.448Z,26.83
2017-11-18T19:52:47.085Z,26.20
2017-11-18T19:55:14.717Z,25.70
2017-11-18T19:57:42.406Z,24.90
2017-11-18T20:02:51.629Z,24.58
2017-11-18T20:05:19.261Z,27.70
2017-11-18T20:07:46.989Z,21.33
2017-11-18T20:10:14.692Z,20.37
2017-11-18T20:12:42.323Z,23.23
2017-11-18T20:15:09.973Z,25.50
2017-11-18T20:17:37.680Z,28.70
2017-11-18T20:20:05.312Z,29.73
2017-11-18T20:22:32.949Z,28.90
2017-11-18T20:25:00.623Z,33.30
2017-11-18T20:27:28.255Z,32.77
2017-11-18T20:29:55.907Z,29.83
2017-11-18T20:32:23.618Z,27.80
2017-11-18T20:34:51.257Z,27.43
2017-11-18T20:37:18.925Z,31.13
2017-11-18T20:39:46.632Z,26.83
2017-11-18T20:42:14.310Z,30.57
2017-11-18T20:44:41.947Z,37.67
2017-11-18T20:47:09.627Z,26.77
2017-11-18T20:49:37.262Z,22.43
2017-11-18T20:52:04.899Z,25.07
2017-11-18T20:54:32.574Z,22.93
2017-11-18T20:57:00.215Z,21.07
2017-11-18T20:59:27.854Z,27.17
2017-11-18T21:01:55.562Z,22.33
2017-11-18T21:07:04.731Z,28.80
2017-11-18T21:09:32.284Z,28.47
2017-11-18T21:12:00.182Z,26.57
2017-11-18T21:14:27.826Z,28.33
2017-11-18T21:16:55.463Z,27.40
2017-11-18T21:19:23.098Z,25.60
2017-11-18T21:21:50.784Z,30.70
2017-11-18T21:24:18.712Z,30.67
2017-11-18T21:26:46.339Z,25.67
2017-11-18T21:29:14.392Z,27.63
2017-11-18T21:31:41.954Z,29.30
2017-11-18T21:34:09.597Z,28.13
2017-11-18T21:36:37.312Z,31.43
2017-11-18T21:39:05.022Z,28.90
2017-11-18T21:41:32.648Z,28.27
2017-11-18T21:44:00.344Z,23.67
2017-11-18T21:46:27.987Z,29.43
2017-11-18T21:48:55.618Z,30.33
2017-11-18T21:51:23.313Z,22.20
2017-11-18T21:53:51.454Z,22.23
2017-11-18T21:56:19.068Z,22.43
2017-11-18T21:58:46.796Z,22.00
2017-11-18T22:01:14.413Z,21.03
2017-11-18T22:03:42.036Z,20.77
2017-11-18T22:06:09.739Z,19.73
2017-11-18T22:08:37.379Z,20.17
2017-11-18T22:11:05.020Z,18.70
2017-11-18T22:13:33.137Z,19.03
2017-11-18T22:16:00.784Z,17.83
2017-11-18T22:18:28.410Z,21.53
2017-11-18T22:20:56.096Z,17.83
2017-11-18T22:23:23.751Z,20.40
2017-11-18T22:25:51.357Z,21.47
2017-11-18T22:28:19.069Z,18.53
2017-11-18T22:33:25.847Z,19.40
2017-11-18T22:35:53.504Z,18.30
2017-11-18T22:38:21.137Z,17.77
2017-11-18T22:40:48.868Z,17.63
2017-11-18T22:43:16.506Z,17.57
2017-11-18T22:45:44.149Z,15.67
2017-11-18T22:48:13.039Z,18.23
2017-11-18T22:50:40.684Z,18.60
2017-11-18T22:53:08.320Z,18.63
2017-11-18T22:55:36.061Z,19.40
2017-11-18T22:58:03.692Z,18.87
2017-11-18T23:00:40.991Z,19.73
2017-11-18T23:03:08.670Z,20.37
2017-11-18T23:05:36.261Z,17.30
2017-11-18T23:08:03.983Z,17.50
2017-11-18T23:10:31.610Z,22.47
2017-11-18T23:12:59.246Z,20.67
2017-11-18T23:15:26.952Z,19.90
2017-11-18T23:17:54.592Z,19.57
2017-11-18T23:20:22.229Z,24.83
2017-11-18T23:22:49.933Z,21.63
2017-11-18T23:25:17.597Z,21.60
2017-11-18T23:27:45.991Z,21.63
2017-11-18T23:30:13.678Z,21.50
2017-11-18T23:32:41.312Z,22.07
2017-11-18T23:37:50.318Z,18.95
2017-11-18T23:40:17.947Z,18.00
2017-11-18T23:42:45.591Z,19.83
2017-11-18T23:45:14.259Z,17.77
2017-11-18T23:47:41.887Z,20.50
2017-11-18T23:50:09.522Z,19.20
2017-11-18T23:52:37.224Z,19.53
2017-11-18T23:55:04.891Z,17.50
